createdAt,value
2019-03-20T00:01:43.644Z,102645.30
2019-03-20T00:04:12.742Z,102650.20
2019-03-20T00:06:44.275Z,102647.91
2019-03-20T00:09:15.758Z,102652.63
2019-03-20T00:11:47.283Z,102649.19
2019-03-20T00:14:18.804Z,102648.95
2019-03-20T00:16:51.000Z,102655.64
2019-03-20T00:19:22.721Z,102650.37
2019-03-20T00:21:54.202Z,102651.75
2019-03-20T00:24:25.563Z,102650.11
2019-03-20T00:26:57.344Z,102649.34
2019-03-20T00:29:28.898Z,102656.16
2019-03-20T00:32:00.640Z,102666.21
2019-03-20T00:34:33.288Z,102670.87
2019-03-20T00:37:04.774Z,102667.81
2019-03-20T00:39:36.331Z,102666.45
2019-03-20T00:42:08.110Z,102662.62
2019-03-20T00:44:39.813Z,102659.64
2019-03-20T00:47:11.468Z,102653.89
2019-03-20T00:49:43.034Z,102669.10
2019-03-20T00:52:14.791Z,102665.06
2019-03-20T00:54:46.495Z,102659.39
2019-03-20T00:57:18.266Z,102661.08
2019-03-20T00:59:49.941Z,102662.40
2019-03-20T01:02:21.754Z,102654.98
2019-03-20T01:04:53.583Z,102651.55
2019-03-20T01:07:25.398Z,102664.16
2019-03-20T01:09:56.925Z,102656.66
2019-03-20T01:12:28.590Z,102671.78
2019-03-20T01:15:00.039Z,102664.83
2019-03-20T01:17:31.323Z,102663.29
2019-03-20T01:20:02.967Z,102673.55
2019-03-20T01:22:34.353Z,102674.77
2019-03-20T01:25:06.669Z,102674.08
2019-03-20T01:27:38.208Z,102677.97
2019-03-20T01:30:12.572Z,102681.78
2019-03-20T01:32:44.080Z,102686.82
2019-03-20T01:35:23.575Z,102693.41
2019-03-20T01:37:49.171Z,102683.45
2019-03-20T01:40:20.769Z,102689.02
2019-03-20T01:42:52.337Z,102690.44
2019-03-20T01:45:24.010Z,102688.64
2019-03-20T01:47:55.646Z,102690.51
2019-03-20T01:50:27.321Z,102692.71
2019-03-20T01:52:58.778Z,102686.33
2019-03-20T01:55:30.559Z,102686.89
2019-03-20T01:58:02.444Z,102688.96
2019-03-20T02:00:34.462Z,102692.77
2019-03-20T02:03:06.077Z,102690.39
2019-03-20T02:05:38.690Z,102696.18
2019-03-20T02:08:10.139Z,102697.98
2019-03-20T02:10:41.793Z,102695.27
2019-03-20T02:13:13.402Z,102700.88
2019-03-20T02:15:44.887Z,102699.16
2019-03-20T02:18:16.602Z,102696.78
2019-03-20T02:20:49.744Z,102701.88
2019-03-20T02:23:21.265Z,102705.95
2019-03-20T02:25:52.904Z,102706.55
2019-03-20T02:28:24.579Z,102709.47
2019-03-20T02:30:56.203Z,102699.79
2019-03-20T02:33:28.452Z,102697.20
2019-03-20T02:36:00.437Z,102707.68
2019-03-20T02:38:32.111Z,102708.74
2019-03-20T02:41:03.816Z,102700.98
2019-03-20T02:43:35.584Z,102702.77
2019-03-20T02:46:07.344Z,102706.77
2019-03-20T02:48:39.333Z,102701.77
2019-03-20T02:51:10.832Z,102704.77
2019-03-20T02:53:42.737Z,102707.74
2019-03-20T02:56:14.436Z,102715.64
2019-03-20T02:58:46.265Z,102715.41
2019-03-20T03:01:18.096Z,102723.12
2019-03-20T03:03:50.131Z,102720.11
2019-03-20T03:06:21.979Z,102720.75
2019-03-20T03:08:55.643Z,102725.43
2019-03-20T03:11:26.988Z,102717.00
2019-03-20T03:13:58.619Z,102721.96
2019-03-20T03:16:30.256Z,102716.71
2019-03-20T03:19:02.104Z,102712.83
2019-03-20T03:21:33.813Z,102717.17
2019-03-20T03:24:05.425Z,102721.48
2019-03-20T03:26:39.029Z,102722.77
2019-03-20T03:29:09.465Z,102720.20
2019-03-20T03:31:39.792Z,102724.17
2019-03-20T03:34:09.960Z,102723.59
2019-03-20T03:36:40.303Z,102727.58
2019-03-20T03:39:10.932Z,102725.47
2019-03-20T03:41:41.094Z,102725.89
2019-03-20T03:44:11.356Z,102728.77
2019-03-20T03:46:41.602Z,102739.23
2019-03-20T03:49:13.321Z,102745.39
2019-03-20T03:51:43.547Z,102745.02
2019-03-20T03:54:13.868Z,102757.09
2019-03-20T03:56:44.043Z,102745.14
2019-03-20T03:59:14.211Z,102754.97
2019-03-20T04:01:44.338Z,102760.73
2019-03-20T04:04:14.521Z,102761.61
2019-03-20T04:06:44.680Z,102758.34
2019-03-20T04:09:14.798Z,102755.13
2019-03-20T04:11:45.197Z,102757.97
2019-03-20T04:14:15.708Z,102762.34
2019-03-20T04:16:46.152Z,102761.59
2019-03-20T04:19:16.509Z,102766.98
2019-03-20T04:21:46.677Z,102775.40
2019-03-20T04:24:16.950Z,102774.10
2019-03-20T04:26:47.466Z,102776.28
2019-03-20T04:29:17.709Z,102775.30
2019-03-20T04:31:47.842Z,102773.08
2019-03-20T04:34:18.021Z,102773.59
2019-03-20T04:36:48.391Z,102779.64
2019-03-20T04:39:18.663Z,102782.53
2019-03-20T04:41:48.970Z,102777.16
2019-03-20T04:44:19.142Z,102783.23
2019-03-20T04:46:50.552Z,102784.14
2019-03-20T04:49:20.751Z,102783.84
2019-03-20T04:51:51.062Z,102784.56
2019-03-20T04:54:21.128Z,102779.37
2019-03-20T04:56:51.434Z,102780.97
2019-03-20T04:59:21.620Z,102791.84
2019-03-20T05:01:51.867Z,102791.84
2019-03-20T05:04:22.415Z,102789.56
2019-03-20T05:06:58.823Z,102799.34
2019-03-20T05:09:25.098Z,102796.53
2019-03-20T05:11:55.577Z,102798.66
2019-03-20T05:14:25.988Z,102801.53
2019-03-20T05:16:56.254Z,102797.67
2019-03-20T05:19:26.615Z,102801.27
2019-03-20T05:21:57.045Z,102800.73
2019-03-20T05:24:27.343Z,102799.23
2019-03-20T05:26:58.385Z,102799.25
2019-03-20T05:29:28.827Z,102802.30
2019-03-20T05:31:59.361Z,102807.13
2019-03-20T05:34:29.574Z,102812.22
2019-03-20T05:37:09.885Z,102806.34
2019-03-20T05:39:31.891Z,102814.83
2019-03-20T05:42:02.292Z,102804.54
2019-03-20T05:44:32.634Z,102802.69
2019-03-20T05:47:02.859Z,102806.47
2019-03-20T05:49:33.100Z,102805.98
2019-03-20T05:52:03.230Z,102811.55
2019-03-20T05:54:33.301Z,102813.37
2019-03-20T05:57:04.530Z,102812.97
2019-03-20T05:59:34.873Z,102810.26
2019-03-20T06:02:05.050Z,102822.64
2019-03-20T06:04:35.405Z,102827.22
2019-03-20T06:07:05.591Z,102828.53
2019-03-20T06:09:35.762Z,102822.31
2019-03-20T06:12:06.079Z,102835.97
2019-03-20T06:14:36.520Z,102835.84
2019-03-20T06:17:07.469Z,102837.84
2019-03-20T06:19:37.636Z,102842.27
2019-03-20T06:22:08.040Z,102845.23
2019-03-20T06:24:38.237Z,102840.88
2019-03-20T06:27:08.677Z,102837.39
2019-03-20T06:29:38.954Z,102837.14
2019-03-20T06:32:09.514Z,102827.81
2019-03-20T06:34:39.779Z,102829.92
2019-03-20T06:37:09.975Z,102829.86
2019-03-20T06:39:40.506Z,102829.70
2019-03-20T06:42:10.896Z,102833.69
2019-03-20T06:44:41.219Z,102844.13
2019-03-20T06:47:11.492Z,102843.53
2019-03-20T06:49:41.775Z,102842.01
2019-03-20T06:52:11.964Z,102851.48
2019-03-20T06:54:42.138Z,102850.53
2019-03-20T06:57:12.319Z,102848.76
2019-03-20T07:00:10.895Z,102853.47
2019-03-20T07:02:42.839Z,102849.33
2019-03-20T07:05:21.450Z,102855.86
2019-03-20T07:07:51.512Z,102865.30
2019-03-20T07:10:40.656Z,102864.73
2019-03-20T07:13:11.156Z,102868.53
2019-03-20T07:15:41.424Z,102864.90
2019-03-20T07:18:11.660Z,102868.48
2019-03-20T07:20:42.110Z,102867.77
2019-03-20T07:23:12.388Z,102880.38
2019-03-20T07:25:42.631Z,102880.22
2019-03-20T07:28:12.899Z,102882.95
2019-03-20T07:30:43.802Z,102890.58
2019-03-20T07:33:14.064Z,102894.50
2019-03-20T07:35:44.425Z,102891.97
2019-03-20T07:38:14.620Z,102905.25
2019-03-20T07:40:45.211Z,102898.07
2019-03-20T07:43:15.373Z,102897.29
2019-03-20T07:45:45.629Z,102906.06
2019-03-20T07:48:22.191Z,102900.53
2019-03-20T07:50:47.856Z,102916.59
2019-03-20T07:53:18.127Z,102905.17
2019-03-20T07:55:48.274Z,102897.93
2019-03-20T07:58:18.636Z,102895.47
2019-03-20T08:00:48.961Z,102885.38
2019-03-20T08:03:19.269Z,102873.91
2019-03-20T08:05:49.450Z,102882.42
2019-03-20T08:08:20.956Z,102881.16
2019-03-20T08:10:51.121Z,102878.00
2019-03-20T08:13:21.419Z,102877.02
2019-03-20T08:15:51.583Z,102879.62
2019-03-20T08:18:21.878Z,102879.56
2019-03-20T08:20:52.203Z,102891.44
2019-03-20T08:23:22.335Z,102894.30
2019-03-20T08:25:52.885Z,102890.91
2019-03-20T08:28:23.081Z,102884.75
2019-03-20T08:30:53.329Z,102875.54
2019-03-20T08:33:23.933Z,102872.69
2019-03-20T08:35:54.097Z,102874.68
2019-03-20T08:38:24.266Z,102878.50
2019-03-20T08:40:54.531Z,102886.86
2019-03-20T08:43:24.906Z,102885.80
2019-03-20T08:45:55.156Z,102878.98
2019-03-20T08:48:25.438Z,102888.02
2019-03-20T08:50:55.896Z,102887.92
2019-03-20T08:53:26.414Z,102898.63
2019-03-20T08:55:56.876Z,102892.06
2019-03-20T08:58:30.147Z,102900.11
2019-03-20T09:01:00.542Z,102894.37
2019-03-20T09:03:30.992Z,102896.63
2019-03-20T09:06:01.393Z,102919.55
2019-03-20T09:08:31.877Z,102911.05
2019-03-20T09:11:02.022Z,102911.09
2019-03-20T09:13:32.527Z,102906.58
2019-03-20T09:16:02.926Z,102900.49
2019-03-20T09:18:33.024Z,102899.36
2019-03-20T09:21:03.208Z,102892.94
2019-03-20T09:23:33.416Z,102906.94
2019-03-20T09:26:03.933Z,102900.13
2019-03-20T09:28:34.425Z,102894.56
2019-03-20T09:31:04.557Z,102892.33
2019-03-20T09:33:34.713Z,102889.50
2019-03-20T09:36:05.244Z,102890.13
2019-03-20T09:38:43.505Z,102882.89
2019-03-20T09:41:07.809Z,102879.45
2019-03-20T09:43:38.165Z,102875.59
2019-03-20T09:46:08.527Z,102875.14
2019-03-20T09:48:38.751Z,102881.61
2019-03-20T09:51:09.318Z,102872.89
2019-03-20T09:53:39.974Z,102869.31
2019-03-20T09:56:11.130Z,102879.08
2019-03-20T09:58:41.605Z,102877.37
2019-03-20T10:01:11.911Z,102873.51
2019-03-20T10:03:42.380Z,102863.91
2019-03-20T10:06:12.694Z,102866.44
2019-03-20T10:08:42.969Z,102857.63
2019-03-20T10:11:13.504Z,102864.47
2019-03-20T10:13:44.014Z,102868.69
2019-03-20T10:16:14.236Z,102870.66
2019-03-20T10:18:44.588Z,102872.09
2019-03-20T10:21:14.734Z,102868.41
2019-03-20T10:23:45.107Z,102871.94
2019-03-20T10:26:15.558Z,102861.59
2019-03-20T10:28:46.027Z,102863.23
2019-03-20T10:31:16.390Z,102870.34
2019-03-20T10:33:46.778Z,102871.38
2019-03-20T10:36:17.104Z,102873.23
2019-03-20T10:38:48.742Z,102865.18
2019-03-20T10:41:19.198Z,102877.37
2019-03-20T10:43:52.172Z,102879.05
2019-03-20T10:46:21.719Z,102873.06
2019-03-20T10:48:52.097Z,102876.93
2019-03-20T10:51:22.472Z,102865.64
2019-03-20T10:53:52.899Z,102867.01
2019-03-20T10:56:23.500Z,102861.08
2019-03-20T10:58:53.628Z,102855.62
2019-03-20T11:01:24.438Z,102868.71
2019-03-20T11:03:54.737Z,102863.39
2019-03-20T11:06:25.433Z,102858.66
2019-03-20T11:08:55.913Z,102854.55
2019-03-20T11:11:27.525Z,102855.95
2019-03-20T11:13:57.775Z,102850.88
2019-03-20T11:16:28.326Z,102844.80
2019-03-20T11:18:58.663Z,102852.75
2019-03-20T11:21:28.932Z,102847.78
2019-03-20T11:23:59.330Z,102843.91
2019-03-20T11:26:29.856Z,102845.88
2019-03-20T11:28:59.969Z,102833.92
2019-03-20T11:31:30.601Z,102826.69
2019-03-20T11:34:00.773Z,102830.37
2019-03-20T11:36:30.902Z,102825.84
2019-03-20T11:39:01.105Z,102820.31
2019-03-20T11:41:32.817Z,102815.91
2019-03-20T11:44:03.149Z,102814.84
2019-03-20T11:46:33.762Z,102812.94
2019-03-20T11:49:04.358Z,102815.93
2019-03-20T11:51:34.477Z,102808.68
2019-03-20T11:54:04.786Z,102803.38
2019-03-20T11:56:34.895Z,102801.17
2019-03-20T11:59:05.318Z,102808.88
2019-03-20T12:01:35.789Z,102797.29
2019-03-20T12:04:06.201Z,102788.72
2019-03-20T12:06:36.317Z,102805.62
2019-03-20T12:09:08.484Z,102786.92
2019-03-20T12:11:45.770Z,102788.06
2019-03-20T12:14:10.565Z,102775.14
2019-03-20T12:16:41.033Z,102777.11
2019-03-20T12:19:11.594Z,102791.34
2019-03-20T12:21:42.162Z,102768.41
2019-03-20T12:24:12.534Z,102780.89
2019-03-20T12:26:42.970Z,102777.20
2019-03-20T12:29:13.394Z,102773.84
2019-03-20T12:31:43.655Z,102764.93
2019-03-20T12:34:14.510Z,102767.25
2019-03-20T12:36:44.888Z,102750.83
2019-03-20T12:39:15.085Z,102763.67
2019-03-20T12:41:45.340Z,102754.88
2019-03-20T12:44:15.553Z,102747.52
2019-03-20T12:46:45.764Z,102745.50
2019-03-20T12:49:16.129Z,102751.22
2019-03-20T12:51:46.393Z,102741.61
2019-03-20T12:54:16.856Z,102735.72
2019-03-20T12:56:47.221Z,102726.56
2019-03-20T12:59:17.520Z,102730.38
2019-03-20T13:01:47.723Z,102745.51
2019-03-20T13:04:17.910Z,102725.53
2019-03-20T13:06:48.286Z,102720.23
2019-03-20T13:09:18.839Z,102703.65
2019-03-20T13:11:49.386Z,102698.11
2019-03-20T13:14:19.759Z,102682.43
2019-03-20T13:16:50.099Z,102672.78
2019-03-20T13:19:20.586Z,102676.25
2019-03-20T13:21:50.727Z,102685.50
2019-03-20T13:24:21.062Z,102682.17
2019-03-20T13:26:51.415Z,102688.69
2019-03-20T13:29:21.721Z,102689.59
2019-03-20T13:31:52.170Z,102671.89
2019-03-20T13:34:22.404Z,102673.91
2019-03-20T13:36:53.158Z,102676.00
2019-03-20T13:39:23.407Z,102668.20
2019-03-20T13:41:53.547Z,102671.56
2019-03-20T13:44:23.764Z,102667.88
2019-03-20T13:46:54.195Z,102674.42
2019-03-20T13:49:24.825Z,102680.30
2019-03-20T13:51:55.467Z,102675.86
2019-03-20T13:54:26.199Z,102668.77
2019-03-20T13:56:56.325Z,102673.58
2019-03-20T13:59:26.756Z,102669.90
2019-03-20T14:01:57.528Z,102652.54
2019-03-20T14:04:28.592Z,102658.74
2019-03-20T14:06:58.795Z,102650.16
2019-03-20T14:09:28.968Z,102654.23
2019-03-20T14:11:59.404Z,102671.11
2019-03-20T14:14:30.008Z,102661.84
2019-03-20T14:17:00.200Z,102678.36
2019-03-20T14:19:30.461Z,102679.08
2019-03-20T14:22:01.730Z,102685.88
2019-03-20T14:24:31.992Z,102703.03
2019-03-20T14:27:02.257Z,102695.86
2019-03-20T14:29:32.512Z,102687.21
2019-03-20T14:32:02.937Z,102685.88
2019-03-20T14:34:33.272Z,102708.01
2019-03-20T14:37:03.475Z,102686.66
2019-03-20T14:39:33.848Z,102694.31
2019-03-20T14:42:04.320Z,102691.92
2019-03-20T14:44:35.425Z,102686.63
2019-03-20T14:47:06.094Z,102690.62
2019-03-20T14:49:36.463Z,102693.77
2019-03-20T14:52:06.771Z,102683.84
2019-03-20T14:54:37.123Z,102689.33
2019-03-20T14:57:07.699Z,102686.12
2019-03-20T14:59:39.367Z,102688.41
2019-03-20T15:02:09.585Z,102672.72
2019-03-20T15:04:40.001Z,102678.40
2019-03-20T15:07:10.450Z,102679.53
2019-03-20T15:09:40.854Z,102676.91
2019-03-20T15:12:11.063Z,102679.06
2019-03-20T15:14:41.838Z,102681.77
2019-03-20T15:17:12.138Z,102665.33
2019-03-20T15:19:42.402Z,102669.78
2019-03-20T15:22:12.879Z,102661.53
2019-03-20T15:24:43.772Z,102660.25
2019-03-20T15:27:13.926Z,102662.73
2019-03-20T15:29:44.245Z,102655.45
2019-03-20T15:32:14.443Z,102663.73
2019-03-20T15:34:45.570Z,102671.25
2019-03-20T15:37:16.693Z,102659.73
2019-03-20T15:39:47.002Z,102663.42
2019-03-20T15:42:17.339Z,102668.52
2019-03-20T15:44:49.716Z,102690.08
2019-03-20T15:47:20.106Z,102663.80
2019-03-20T15:49:50.447Z,102670.64
2019-03-20T15:52:20.774Z,102669.85
2019-03-20T15:54:52.161Z,102667.86
2019-03-20T15:57:24.861Z,102668.67
2019-03-20T15:59:55.216Z,102673.87
2019-03-20T16:02:25.511Z,102671.89
2019-03-20T16:04:55.690Z,102675.92
2019-03-20T16:07:25.937Z,102668.55
2019-03-20T16:09:57.586Z,102672.53
2019-03-20T16:12:28.070Z,102683.19
2019-03-20T16:14:58.432Z,102689.43
2019-03-20T16:17:28.753Z,102695.50
2019-03-20T16:19:59.253Z,102697.32
2019-03-20T16:22:31.772Z,102701.83
2019-03-20T16:25:02.073Z,102702.21
2019-03-20T16:27:32.581Z,102697.61
2019-03-20T16:30:03.005Z,102694.53
2019-03-20T16:32:33.673Z,102679.36
2019-03-20T16:35:04.035Z,102687.52
2019-03-20T16:37:34.693Z,102691.66
2019-03-20T16:40:05.359Z,102696.44
2019-03-20T16:42:36.115Z,102700.08
2019-03-20T16:45:06.757Z,102690.13
2019-03-20T16:47:37.107Z,102687.02
2019-03-20T16:50:07.851Z,102684.91
2019-03-20T16:52:38.204Z,102678.31
2019-03-20T16:55:09.042Z,102685.05
2019-03-20T16:57:39.265Z,102690.13
2019-03-20T17:00:11.814Z,102690.71
2019-03-20T17:02:42.355Z,102694.02
2019-03-20T17:05:12.526Z,102699.55
2019-03-20T17:07:43.179Z,102696.33
2019-03-20T17:10:24.276Z,102688.42
2019-03-20T17:12:54.718Z,102692.09
2019-03-20T17:15:26.097Z,102688.23
2019-03-20T17:17:56.452Z,102681.55
2019-03-20T17:20:26.858Z,102686.33
2019-03-20T17:22:57.348Z,102689.34
2019-03-20T17:25:28.861Z,102686.74
2019-03-20T17:27:59.293Z,102679.01
2019-03-20T17:30:33.579Z,102676.56
2019-03-20T17:33:04.204Z,102678.27
2019-03-20T17:35:34.523Z,102662.49
2019-03-20T17:38:04.939Z,102677.91
2019-03-20T17:40:35.528Z,102669.38
2019-03-20T17:43:05.843Z,102667.42
2019-03-20T17:45:36.536Z,102675.94
2019-03-20T17:48:07.019Z,102672.81
2019-03-20T17:50:38.672Z,102679.66
2019-03-20T17:53:09.171Z,102684.64
2019-03-20T17:55:39.940Z,102681.69
2019-03-20T17:58:10.234Z,102683.01
2019-03-20T18:00:42.505Z,102679.50
2019-03-20T18:03:12.925Z,102683.48
2019-03-20T18:05:43.531Z,102679.60
2019-03-20T18:08:14.118Z,102673.66
2019-03-20T18:10:44.343Z,102675.78
2019-03-20T18:13:14.733Z,102675.71
2019-03-20T18:15:46.833Z,102683.23
2019-03-20T18:18:17.140Z,102686.83
2019-03-20T18:20:47.588Z,102683.30
2019-03-20T18:23:17.825Z,102680.44
2019-03-20T18:25:48.289Z,102680.06
2019-03-20T18:28:18.792Z,102684.77
2019-03-20T18:30:49.020Z,102678.84
2019-03-20T18:33:19.275Z,102677.81
2019-03-20T18:35:49.596Z,102673.00
2019-03-20T18:38:20.086Z,102668.11
2019-03-20T18:40:50.697Z,102668.27
2019-03-20T18:43:21.056Z,102668.27
2019-03-20T18:45:52.384Z,102670.87
2019-03-20T18:48:23.066Z,102665.64
2019-03-20T18:50:53.389Z,102662.20
2019-03-20T18:53:23.759Z,102661.59
2019-03-20T18:55:53.937Z,102666.14
2019-03-20T18:58:24.537Z,102669.71
2019-03-20T19:00:56.418Z,102664.55
2019-03-20T19:03:26.627Z,102669.64
2019-03-20T19:05:58.720Z,102670.86
2019-03-20T19:08:28.825Z,102681.17
2019-03-20T19:10:59.020Z,102680.34
2019-03-20T19:13:29.720Z,102686.91
2019-03-20T19:16:02.150Z,102686.53
2019-03-20T19:18:32.537Z,102692.56
2019-03-20T19:21:03.074Z,102698.27
2019-03-20T19:23:33.625Z,102693.39
2019-03-20T19:26:03.980Z,102697.02
2019-03-20T19:28:34.076Z,102698.82
2019-03-20T19:31:04.219Z,102700.59
2019-03-20T19:33:34.472Z,102703.15
2019-03-20T19:36:05.146Z,102708.52
2019-03-20T19:38:35.476Z,102706.34
2019-03-20T19:41:05.833Z,102706.06
2019-03-20T19:43:35.923Z,102705.55
2019-03-20T19:46:06.220Z,102709.01
2019-03-20T19:48:36.725Z,102707.28
2019-03-20T19:51:07.029Z,102705.61
2019-03-20T19:53:37.484Z,102713.06
2019-03-20T19:56:07.611Z,102715.94
2019-03-20T19:58:37.895Z,102716.03
2019-03-20T20:01:08.124Z,102716.90
2019-03-20T20:03:39.399Z,102718.28
2019-03-20T20:06:11.389Z,102711.84
2019-03-20T20:08:41.697Z,102727.11
2019-03-20T20:11:12.209Z,102728.98
2019-03-20T20:13:42.591Z,102730.16
2019-03-20T20:16:12.655Z,102725.31
2019-03-20T20:18:43.371Z,102719.33
2019-03-20T20:23:16.562Z,102714.72
2019-03-20T20:25:48.274Z,102710.98
2019-03-20T20:28:19.900Z,102706.55
2019-03-20T20:30:51.796Z,102697.86
2019-03-20T20:34:02.434Z,102701.50
2019-03-20T20:36:34.742Z,102698.90
2019-03-20T20:39:07.693Z,102698.90
2019-03-20T20:41:39.824Z,102694.58
2019-03-20T20:44:11.400Z,102705.06
2019-03-20T20:46:43.068Z,102719.01
2019-03-20T20:49:14.842Z,102715.62
2019-03-20T20:51:46.504Z,102710.73
2019-03-20T20:54:18.017Z,102701.05
2019-03-20T20:56:49.603Z,102698.31
2019-03-20T20:59:20.909Z,102697.37
2019-03-20T21:01:52.360Z,102703.67
2019-03-20T21:04:24.471Z,102696.78
2019-03-20T21:06:55.945Z,102690.83
2019-03-20T21:09:29.532Z,102697.34
2019-03-20T21:12:01.790Z,102708.31
2019-03-20T21:14:33.729Z,102707.93
2019-03-20T21:17:09.077Z,102718.80
2019-03-20T21:19:41.279Z,102709.14
2019-03-20T21:23:01.310Z,102702.49
2019-03-20T21:25:33.455Z,102697.61
2019-03-20T21:28:41.528Z,102692.84
2019-03-20T21:31:52.201Z,102695.09
2019-03-20T21:34:59.751Z,102694.98
2019-03-20T21:38:05.026Z,102688.89
2019-03-20T21:40:45.812Z,102688.86
2019-03-20T21:43:47.667Z,102690.48
2019-03-20T21:46:47.214Z,102680.90
2019-03-20T21:49:20.274Z,102681.20
2019-03-20T21:51:54.002Z,102690.59
2019-03-20T21:55:15.471Z,102689.73
2019-03-20T21:58:00.905Z,102693.97
2019-03-20T22:01:08.262Z,102691.11
2019-03-20T22:03:40.442Z,102707.16
2019-03-20T22:06:38.008Z,102695.88
2019-03-20T22:09:50.475Z,102691.52
2019-03-20T22:12:51.116Z,102695.47
2019-03-20T22:15:37.580Z,102697.13
2019-03-20T22:18:51.777Z,102698.52
2019-03-20T22:21:41.688Z,102695.47
2019-03-20T22:25:01.780Z,102694.16
2019-03-20T22:27:57.831Z,102694.12
2019-03-20T22:30:29.778Z,102696.75
2019-03-20T22:33:37.804Z,102690.48
2019-03-20T22:36:35.010Z,102689.66
2019-03-20T22:39:44.387Z,102693.22
2019-03-20T22:42:40.169Z,102690.59
2019-03-20T22:45:52.536Z,102691.42
2019-03-20T22:49:07.313Z,102693.97
2019-03-20T22:52:00.116Z,102688.68
2019-03-20T22:55:15.130Z,102693.59
2019-03-20T22:58:27.549Z,102684.77
2019-03-20T23:01:00.908Z,102692.28
2019-03-20T23:03:44.166Z,102695.81
2019-03-20T23:06:16.852Z,102700.17
2019-03-20T23:08:48.667Z,102708.41
2019-03-20T23:11:20.720Z,102708.44
2019-03-20T23:13:53.343Z,102696.57
2019-03-20T23:16:25.464Z,102687.81
2019-03-20T23:18:57.554Z,102692.28
2019-03-20T23:21:29.507Z,102690.03
2019-03-20T23:24:01.578Z,102685.53
2019-03-20T23:26:33.637Z,102684.52
2019-03-20T23:29:05.896Z,102688.84
2019-03-20T23:31:38.131Z,102696.06
2019-03-20T23:34:10.237Z,102701.84
2019-03-20T23:36:42.686Z,102704.81
2019-03-20T23:39:14.931Z,102708.80
2019-03-20T23:41:46.966Z,102717.58
2019-03-20T23:44:19.367Z,102724.91
2019-03-20T23:46:52.287Z,102728.47
2019-03-20T23:49:24.753Z,102731.09
2019-03-20T23:51:58.003Z,102728.09
2019-03-20T23:54:34.166Z,102733.73
2019-03-20T23:57:06.408Z,102724.23
2019-03-20T23:59:38.627Z,102721.30
